Time;durP1;ratioP1;P1;durP2;ratioP2;P2;SDS_P1;SDS_P2;PMS_P1;PMS_P2;Temp;Humidity;BMP_temperature;BMP_pressure;BME280_temperature;BME280_humidity;BME280_pressure;Samples;Min_cycle;Max_cycle;Signal;HPM_P1;HPM_P2
2020/12/25 00:01:33;;;;;;;13.80;8.02;;;12.80;99.90;;;;;;4821641;29;20038;-77
2020/12/25 00:04:00;;;;;;;12.43;7.47;;;12.70;99.90;;;;;;4819924;29;20770;-78
2020/12/25 00:06:34;;;;;;;13.30;7.80;;;12.80;99.90;;;;;;4810173;29;20030;-77
2020/12/25 00:09:04;;;;;;;14.73;8.73;;;12.60;99.90;;;;;;4797246;29;20376;-77
2020/12/25 00:11:36;;;;;;;16.70;8.55;;;12.60;99.90;;;;;;4780983;29;20103;-77
2020/12/25 00:14:04;;;;;;;16.05;8.48;;;12.70;99.90;;;;;;4797604;29;20103;-77
2020/12/25 00:16:33;;;;;;;14.40;9.63;;;12.70;99.90;;;;;;4799835;29;20493;-77
2020/12/25 00:19:01;;;;;;;13.60;8.27;;;12.60;99.90;;;;;;4792850;29;20065;-78
2020/12/25 00:21:28;;;;;;;17.00;9.52;;;12.60;99.90;;;;;;4808157;29;20434;-77
2020/12/25 00:23:55;;;;;;;16.25;8.80;;;12.50;99.90;;;;;;4795303;29;20042;-77
2020/12/25 00:26:26;;;;;;;17.08;10.18;;;12.50;99.90;;;;;;4809260;29;20050;-78
2020/12/25 00:28:54;;;;;;;15.00;8.98;;;12.60;99.90;;;;;;4798407;29;20129;-80
2020/12/25 00:31:30;;;;;;;18.25;8.85;;;12.60;99.90;;;;;;4795680;29;20113;-78
2020/12/25 00:34:00;;;;;;;16.83;9.85;;;12.50;99.90;;;;;;4794848;29;20042;-77
2020/12/25 00:36:32;;;;;;;21.33;11.13;;;12.50;99.90;;;;;;4794531;29;20038;-77
2020/12/25 00:39:00;;;;;;;19.50;11.20;;;12.50;99.90;;;;;;4814191;29;20049;-77
2020/12/25 00:41:26;;;;;;;21.13;11.35;;;12.50;99.90;;;;;;4807842;29;20034;-78
2020/12/25 00:43:53;;;;;;;19.77;10.77;;;12.50;99.90;;;;;;4789610;29;20108;-77
2020/12/25 00:46:21;;;;;;;18.20;11.05;;;12.50;99.90;;;;;;4807661;29;20486;-77
2020/12/25 00:48:47;;;;;;;19.67;10.77;;;12.50;99.90;;;;;;4809731;29;20034;-77
2020/12/25 00:51:21;;;;;;;21.52;11.13;;;12.50;99.90;;;;;;4792043;29;20039;-78
2020/12/25 00:53:51;;;;;;;17.02;9.60;;;12.60;99.90;;;;;;4787266;29;21104;-80
2020/12/25 00:56:23;;;;;;;16.23;10.13;;;12.60;99.90;;;;;;4801611;29;20473;-78
2020/12/25 00:58:51;;;;;;;16.70;10.50;;;12.60;99.90;;;;;;4798451;29;20072;-77
2020/12/25 01:01:21;;;;;;;20.02;10.88;;;12.60;99.90;;;;;;4793134;29;20393;-78
2020/12/25 01:03:47;;;;;;;23.67;12.32;;;12.60;99.90;;;;;;4814232;29;20023;-78
2020/12/25 01:06:19;;;;;;;20.02;12.40;;;12.60;99.90;;;;;;4807237;29;20393;-78
2020/12/25 01:08:48;;;;;;;19.88;11.85;;;12.60;99.90;;;;;;4809275;29;20031;-80
2020/12/25 01:11:15;;;;;;;25.50;14.20;;;12.60;99.90;;;;;;4813867;29;20038;-77
2020/12/25 01:14:02;;;;;;;21.77;11.85;;;12.50;99.90;;;;;;4815411;29;20117;-77
2020/12/25 01:16:30;;;;;;;27.55;13.07;;;12.50;99.90;;;;;;4820286;29;20038;-77
2020/12/25 01:18:56;;;;;;;23.85;13.82;;;12.50;99.90;;;;;;4812783;29;20034;-77
2020/12/25 01:21:22;;;;;;;24.20;14.00;;;12.50;99.90;;;;;;4814332;29;20056;-77
2020/12/25 01:23:48;;;;;;;23.90;13.57;;;12.50;99.90;;;;;;4818275;29;20091;-77
2020/12/25 01:26:15;;;;;;;21.23;12.10;;;12.40;99.90;;;;;;4803095;29;20054;-77
2020/12/25 01:28:41;;;;;;;22.13;12.38;;;12.40;99.90;;;;;;4811790;29;20134;-79
2020/12/25 01:31:07;;;;;;;26.88;14.20;;;12.30;99.90;;;;;;4811731;29;20023;-78
2020/12/25 01:33:34;;;;;;;29.05;15.15;;;12.40;99.90;;;;;;4812381;29;20050;-77
2020/12/25 01:36:04;;;;;;;28.13;14.98;;;12.30;99.90;;;;;;4800507;29;20536;-78
2020/12/25 01:38:31;;;;;;;28.38;15.90;;;12.30;99.90;;;;;;4822998;29;20121;-78
2020/12/25 01:40:57;;;;;;;29.92;16.92;;;12.30;99.90;;;;;;4820512;29;20107;-78
2020/12/25 01:43:24;;;;;;;24.45;14.93;;;12.30;99.90;;;;;;4822378;29;20501;-78
2020/12/25 01:45:50;;;;;;;26.90;15.10;;;12.30;99.90;;;;;;4827274;29;20068;-78
2020/12/25 01:48:16;;;;;;;22.00;13.38;;;12.20;99.90;;;;;;4808359;29;20043;-78
2020/12/25 01:50:43;;;;;;;25.42;14.18;;;12.20;99.90;;;;;;4820531;29;20552;-78
2020/12/25 01:53:10;;;;;;;24.23;12.25;;;12.20;99.90;;;;;;4816691;29;20117;-78
2020/12/25 01:55:39;;;;;;;23.92;13.13;;;12.20;99.90;;;;;;4822170;29;20114;-78
2020/12/25 01:58:06;;;;;;;18.95;11.85;;;12.20;99.90;;;;;;4820523;29;20030;-78
2020/12/25 02:00:34;;;;;;;20.52;10.40;;;12.30;99.90;;;;;;4821592;29;20123;-78
2020/12/25 02:03:00;;;;;;;25.73;10.95;;;12.30;99.90;;;;;;4816548;29;20048;-78
2020/12/25 02:05:26;;;;;;;21.40;10.73;;;12.40;99.90;;;;;;4823363;29;20083;-78
2020/12/25 02:07:55;;;;;;;17.70;10.27;;;12.40;99.90;;;;;;4835427;29;20042;-78
2020/12/25 02:10:22;;;;;;;19.45;11.10;;;12.40;99.90;;;;;;4827574;29;20042;-78
2020/12/25 02:12:48;;;;;;;17.65;10.23;;;12.40;99.90;;;;;;4813864;29;20923;-78
2020/12/25 02:15:15;;;;;;;20.92;11.13;;;12.40;99.90;;;;;;4812637;29;20030;-78
2020/12/25 02:17:48;;;;;;;23.83;11.60;;;12.40;99.90;;;;;;4818119;29;20034;-77
2020/12/25 02:20:15;;;;;;;17.30;9.98;;;12.40;99.90;;;;;;4815980;29;20095;-77
2020/12/25 02:22:41;;;;;;;17.02;9.50;;;12.40;99.90;;;;;;4817081;29;20103;-77
2020/12/25 02:25:08;;;;;;;20.67;9.27;;;12.40;99.90;;;;;;4800759;29;20497;-78
2020/12/25 02:27:34;;;;;;;15.93;8.05;;;12.50;99.90;;;;;;4820416;29;20042;-78
2020/12/25 02:30:01;;;;;;;16.20;8.70;;;12.50;99.90;;;;;;4822908;29;20513;-78
2020/12/25 02:32:27;;;;;;;15.10;8.43;;;12.50;99.90;;;;;;4821465;29;20512;-78
2020/12/25 02:34:53;;;;;;;20.92;7.97;;;12.50;99.90;;;;;;4818354;29;20034;-78
2020/12/25 02:37:19;;;;;;;14.48;8.52;;;12.50;99.90;;;;;;4809975;29;20035;-76
2020/12/25 02:39:46;;;;;;;14.50;7.47;;;12.50;99.90;;;;;;4793404;29;20489;-77
2020/12/25 02:42:12;;;;;;;16.60;8.05;;;12.40;99.90;;;;;;4816602;29;20401;-78
2020/12/25 02:44:39;;;;;;;17.52;8.55;;;12.50;99.90;;;;;;4815657;29;20027;-77
2020/12/25 02:47:05;;;;;;;14.48;8.65;;;12.40;99.90;;;;;;4820644;29;20031;-77
2020/12/25 02:49:31;;;;;;;21.48;7.25;;;12.40;99.90;;;;;;4820287;29;20490;-77
2020/12/25 02:51:59;;;;;;;12.55;7.25;;;12.40;99.90;;;;;;4822021;29;20034;-77
2020/12/25 02:54:25;;;;;;;17.13;8.50;;;12.40;99.90;;;;;;4806935;29;20406;-77
2020/12/25 02:56:51;;;;;;;14.55;8.27;;;12.40;99.90;;;;;;4822201;29;20030;-77
2020/12/25 02:59:17;;;;;;;14.70;7.88;;;12.40;99.90;;;;;;4805477;29;20027;-78
2020/12/25 03:01:47;;;;;;;19.50;7.82;;;12.40;99.90;;;;;;4820941;29;20035;-77
2020/12/25 03:04:13;;;;;;;12.75;7.30;;;12.40;99.90;;;;;;4816318;29;20030;-77
2020/12/25 03:06:39;;;;;;;14.07;7.65;;;12.30;99.90;;;;;;4821042;29;20065;-77
2020/12/25 03:09:06;;;;;;;16.38;8.93;;;12.30;99.90;;;;;;4816519;29;20050;-77
2020/12/25 03:11:32;;;;;;;14.32;7.78;;;12.40;99.90;;;;;;4821952;29;20048;-77
2020/12/25 03:13:58;;;;;;;13.88;7.43;;;12.30;99.90;;;;;;4817609;29;20039;-77
2020/12/25 03:16:24;;;;;;;18.27;7.82;;;12.40;99.90;;;;;;4813759;29;20090;-77
2020/12/25 03:18:50;;;;;;;13.57;7.85;;;12.30;99.90;;;;;;4825861;29;20093;-77
2020/12/25 03:21:16;;;;;;;17.10;7.50;;;12.30;99.90;;;;;;4815612;29;20022;-77
2020/12/25 03:23:42;;;;;;;18.73;8.38;;;12.30;99.90;;;;;;4821362;29;20086;-77
2020/12/25 03:26:08;;;;;;;16.98;7.88;;;12.20;99.90;;;;;;4804405;29;20049;-77
2020/12/25 03:28:34;;;;;;;13.77;8.15;;;12.20;99.90;;;;;;4812976;29;20050;-77
2020/12/25 03:31:00;;;;;;;14.63;7.93;;;12.10;99.90;;;;;;4819551;29;20026;-77
2020/12/25 03:33:26;;;;;;;12.68;6.88;;;12.10;99.90;;;;;;4815989;29;20041;-77
2020/12/25 03:35:52;;;;;;;13.65;7.43;;;12.10;99.90;;;;;;4816069;29;20422;-77
2020/12/25 03:38:19;;;;;;;13.73;7.15;;;12.00;99.90;;;;;;4820099;29;20035;-78
2020/12/25 03:40:45;;;;;;;12.82;6.88;;;12.00;99.90;;;;;;4803078;29;20066;-77
2020/12/25 03:43:11;;;;;;;11.13;7.00;;;12.10;99.90;;;;;;4813213;29;20042;-78
2020/12/25 03:45:37;;;;;;;15.40;7.72;;;12.00;99.90;;;;;;4817566;29;20373;-77
2020/12/25 03:48:04;;;;;;;11.00;6.90;;;12.00;99.90;;;;;;4814261;29;20462;-77
2020/12/25 03:50:31;;;;;;;18.77;7.53;;;12.00;99.90;;;;;;4809637;29;20046;-77
2020/12/25 03:52:57;;;;;;;15.38;7.68;;;12.00;99.90;;;;;;4816108;29;20056;-77
2020/12/25 03:55:23;;;;;;;15.30;6.93;;;12.00;99.90;;;;;;4818927;29;20041;-78
2020/12/25 03:57:50;;;;;;;12.73;6.88;;;11.90;99.90;;;;;;4794625;29;20041;-77
2020/12/25 04:00:16;;;;;;;10.95;7.10;;;11.90;99.90;;;;;;4828756;29;20541;-78
2020/12/25 04:02:42;;;;;;;17.65;8.00;;;11.90;99.90;;;;;;4821236;29;20026;-77
2020/12/25 04:05:08;;;;;;;13.73;6.53;;;11.90;99.90;;;;;;4821268;29;20427;-77
2020/12/25 04:07:34;;;;;;;12.50;6.40;;;12.00;99.90;;;;;;4810246;29;20025;-78
2020/12/25 04:10:00;;;;;;;11.57;6.43;;;12.00;99.90;;;;;;4810778;29;20042;-78
2020/12/25 04:12:26;;;;;;;17.42;7.65;;;12.00;99.90;;;;;;4810848;29;20550;-77
2020/12/25 04:14:52;;;;;;;11.00;6.38;;;12.00;99.90;;;;;;4812046;29;20130;-77
2020/12/25 04:17:18;;;;;;;11.13;5.82;;;12.00;99.90;;;;;;4812560;29;20031;-78
2020/12/25 04:19:45;;;;;;;17.52;7.50;;;12.00;99.90;;;;;;4819675;29;20028;-78
2020/12/25 04:22:11;;;;;;;14.20;7.05;;;12.00;99.90;;;;;;4818459;29;20042;-77
2020/12/25 04:24:37;;;;;;;13.10;6.72;;;12.00;99.90;;;;;;4813047;29;20064;-76
2020/12/25 04:27:03;;;;;;;12.43;6.22;;;12.10;99.90;;;;;;4809297;29;20703;-77
2020/12/25 04:29:29;;;;;;;11.90;6.38;;;12.10;99.90;;;;;;4824773;29;20042;-78
2020/12/25 04:31:55;;;;;;;15.02;6.68;;;12.10;99.90;;;;;;4817295;29;20166;-78
2020/12/25 04:34:21;;;;;;;13.15;6.07;;;12.10;99.90;;;;;;4817529;29;20035;-78
2020/12/25 04:36:47;;;;;;;15.07;8.15;;;12.20;99.90;;;;;;4820596;29;20059;-78
2020/12/25 04:39:13;;;;;;;20.33;7.53;;;12.10;99.90;;;;;;4821887;29;20042;-78
2020/12/25 04:41:39;;;;;;;12.50;6.43;;;12.20;99.90;;;;;;4818097;29;20026;-79
2020/12/25 04:44:06;;;;;;;11.00;5.93;;;12.30;99.90;;;;;;4816071;29;20497;-78
2020/12/25 04:46:33;;;;;;;10.88;5.82;;;12.20;99.90;;;;;;4805609;29;20038;-78
2020/12/25 04:49:00;;;;;;;9.30;6.40;;;12.20;99.90;;;;;;4805625;29;20457;-78
2020/12/25 04:51:26;;;;;;;13.90;6.03;;;12.20;99.90;;;;;;4819591;29;20030;-78
2020/12/25 04:53:54;;;;;;;11.48;6.38;;;12.20;99.90;;;;;;4802310;29;20586;-78
2020/12/25 04:56:24;;;;;;;11.90;7.00;;;12.20;99.90;;;;;;4818897;29;20034;-78
2020/12/25 04:58:51;;;;;;;12.00;6.28;;;12.20;99.90;;;;;;4818266;29;20113;-78
2020/12/25 05:01:18;;;;;;;9.35;5.70;;;12.20;99.90;;;;;;4825647;29;20057;-78
2020/12/25 05:03:46;;;;;;;13.25;6.32;;;12.20;99.90;;;;;;4807741;29;20037;-78
2020/12/25 05:06:14;;;;;;;13.25;6.78;;;12.10;99.90;;;;;;4807716;29;20505;-78
2020/12/25 05:08:50;;;;;;;13.48;6.53;;;12.10;99.90;;;;;;4799166;29;20034;-78
2020/12/25 05:11:18;;;;;;;12.38;6.72;;;12.10;99.90;;;;;;4829966;29;20520;-79
2020/12/25 05:13:47;;;;;;;14.95;6.30;;;12.00;99.90;;;;;;4820360;29;20038;-79
2020/12/25 05:16:14;;;;;;;10.95;6.97;;;12.00;99.90;;;;;;4816057;29;20503;-77
2020/12/25 05:18:44;;;;;;;10.15;6.55;;;12.10;99.90;;;;;;4814462;29;20498;-78
2020/12/25 05:21:12;;;;;;;13.10;7.18;;;12.10;99.90;;;;;;4820617;29;20496;-78
2020/12/25 05:23:40;;;;;;;11.63;5.85;;;12.00;99.90;;;;;;4814772;29;20570;-77
2020/12/25 05:26:09;;;;;;;12.75;6.05;;;12.00;99.90;;;;;;4813697;29;20061;-77
2020/12/25 05:28:48;;;;;;;13.23;6.38;;;12.00;99.90;;;;;;4816435;29;20061;-78
2020/12/25 05:31:15;;;;;;;12.10;6.70;;;12.00;99.90;;;;;;4819174;29;20034;-78
2020/12/25 05:33:41;;;;;;;11.23;5.93;;;12.00;99.90;;;;;;4808979;29;20506;-78
2020/12/25 05:36:12;;;;;;;11.30;6.32;;;12.00;99.90;;;;;;4819029;29;20022;-78
2020/12/25 05:38:39;;;;;;;10.25;5.65;;;11.90;99.90;;;;;;4814251;29;20038;-77
2020/12/25 05:41:07;;;;;;;12.02;6.15;;;12.00;99.90;;;;;;4817587;29;20037;-77
2020/12/25 05:43:34;;;;;;;13.30;6.78;;;12.00;99.90;;;;;;4819084;29;20045;-78
2020/12/25 05:46:00;;;;;;;16.67;6.20;;;12.00;99.90;;;;;;4819904;29;20025;-77
2020/12/25 05:48:27;;;;;;;10.40;6.25;;;12.00;99.90;;;;;;4815883;29;20045;-77
2020/12/25 05:50:53;;;;;;;13.27;6.80;;;11.90;99.90;;;;;;4807506;29;20031;-77
2020/12/25 05:53:19;;;;;;;12.50;6.70;;;12.00;99.90;;;;;;4819326;29;20054;-78
2020/12/25 05:55:46;;;;;;;14.55;7.78;;;12.00;99.90;;;;;;4819830;29;20099;-77
2020/12/25 05:58:15;;;;;;;16.35;7.22;;;12.00;99.90;;;;;;4805597;29;20078;-77
2020/12/25 06:00:43;;;;;;;11.43;6.43;;;11.80;99.90;;;;;;4816862;29;20141;-78
2020/12/25 06:03:18;;;;;;;11.13;5.68;;;11.90;99.90;;;;;;4822383;29;20038;-77
2020/12/25 06:05:46;;;;;;;11.70;6.05;;;11.90;99.90;;;;;;4823117;29;20023;-77
2020/12/25 06:08:17;;;;;;;13.48;5.82;;;11.90;99.90;;;;;;4805072;29;20180;-77
2020/12/25 06:10:45;;;;;;;10.38;5.82;;;11.90;99.90;;;;;;4810589;29;20031;-77
2020/12/25 06:13:15;;;;;;;13.65;6.30;;;11.90;99.90;;;;;;4820104;29;20037;-77
2020/12/25 06:15:49;;;;;;;10.48;5.18;;;11.90;99.90;;;;;;4822029;29;20187;-77
2020/12/25 06:18:27;;;;;;;8.57;5.07;;;11.90;99.90;;;;;;4807135;29;20084;-77
2020/12/25 06:21:00;;;;;;;8.48;5.38;;;11.90;99.90;;;;;;4809632;29;20047;-77
2020/12/25 06:23:29;;;;;;;11.82;5.53;;;12.00;99.90;;;;;;4815933;29;20397;-77
2020/12/25 06:25:55;;;;;;;8.15;4.68;;;12.00;99.90;;;;;;4808849;29;20038;-77
2020/12/25 06:28:21;;;;;;;10.38;5.07;;;12.10;99.90;;;;;;4816788;29;20127;-77
2020/12/25 06:30:48;;;;;;;8.57;5.15;;;12.10;99.90;;;;;;4819307;29;20042;-77
2020/12/25 06:33:14;;;;;;;10.98;4.88;;;12.10;99.90;;;;;;4819589;29;20027;-78
2020/12/25 06:35:43;;;;;;;10.48;5.55;;;12.10;99.90;;;;;;4819668;29;20076;-78
2020/12/25 06:38:15;;;;;;;9.73;6.03;;;12.10;99.90;;;;;;4815547;29;20113;-77
2020/12/25 06:40:42;;;;;;;8.80;5.57;;;12.20;99.90;;;;;;4822116;29;20148;-77
2020/12/25 06:43:13;;;;;;;8.73;5.25;;;12.20;99.90;;;;;;4814174;29;20031;-77
2020/12/25 06:45:39;;;;;;;11.50;5.60;;;12.20;99.90;;;;;;4812283;29;20055;-77
2020/12/25 06:48:21;;;;;;;9.63;6.05;;;12.30;99.90;;;;;;4819942;29;20102;-78
2020/12/25 06:50:59;;;;;;;10.40;6.13;;;12.30;99.90;;;;;;4820602;29;20042;-77
2020/12/25 06:53:37;;;;;;;8.65;5.38;;;12.40;99.90;;;;;;4812733;29;20034;-77
2020/12/25 06:56:17;;;;;;;8.80;5.15;;;12.50;99.90;;;;;;4820464;29;20038;-77
2020/12/25 06:58:45;;;;;;;12.55;5.80;;;12.50;99.90;;;;;;4817494;29;20030;-78
2020/12/25 07:01:13;;;;;;;9.70;5.85;;;12.60;99.90;;;;;;4808941;29;20099;-77
2020/12/25 07:03:40;;;;;;;9.27;5.32;;;12.60;99.90;;;;;;4820787;29;20082;-77
2020/12/25 07:06:10;;;;;;;7.30;5.05;;;12.60;99.90;;;;;;4797987;29;20027;-77
2020/12/25 07:08:43;;;;;;;10.00;5.25;;;12.70;99.90;;;;;;4816241;29;20158;-77
2020/12/25 07:11:10;;;;;;;7.35;4.05;;;12.80;99.90;;;;;;4822037;29;20402;-78
2020/12/25 07:13:37;;;;;;;8.05;5.13;;;12.80;99.90;;;;;;4805851;29;20042;-78
2020/12/25 07:16:06;;;;;;;8.57;4.85;;;12.90;99.90;;;;;;4816983;29;20129;-78
2020/12/25 07:18:33;;;;;;;10.02;4.80;;;13.00;99.90;;;;;;4819461;29;20061;-78
2020/12/25 07:21:01;;;;;;;7.72;4.32;;;13.10;99.90;;;;;;4820286;29;20083;-78
2020/12/25 07:23:28;;;;;;;8.73;4.90;;;13.10;99.90;;;;;;4805933;29;20033;-77
2020/12/25 07:25:58;;;;;;;12.48;4.55;;;13.10;99.90;;;;;;4829085;29;20034;-78
2020/12/25 07:28:29;;;;;;;13.30;5.97;;;13.20;99.90;;;;;;4797525;29;20050;-78
2020/12/25 07:30:57;;;;;;;10.57;4.50;;;13.20;99.90;;;;;;4815330;29;20575;-78
2020/12/25 07:33:24;;;;;;;9.25;4.35;;;13.30;99.90;;;;;;4819599;29;20030;-78
2020/12/25 07:35:51;;;;;;;10.75;5.20;;;13.30;99.90;;;;;;4820602;29;20042;-79
2020/12/25 07:38:17;;;;;;;7.53;4.80;;;13.40;99.90;;;;;;4819954;29;20051;-78
2020/12/25 07:40:44;;;;;;;7.93;4.65;;;13.40;99.90;;;;;;4821751;29;20076;-78
2020/12/25 07:43:14;;;;;;;10.30;4.88;;;13.50;99.90;;;;;;4820032;29;20098;-78
2020/12/25 07:45:40;;;;;;;9.10;5.20;;;13.50;99.90;;;;;;4821797;29;20143;-78
2020/12/25 07:48:08;;;;;;;12.48;5.22;;;13.60;99.90;;;;;;4820583;29;20174;-78
2020/12/25 07:50:44;;;;;;;11.05;6.28;;;13.70;99.90;;;;;;4811556;29;20042;-78
2020/12/25 07:53:13;;;;;;;10.55;5.40;;;13.70;99.90;;;;;;4814484;29;20517;-77
2020/12/25 07:55:44;;;;;;;15.57;7.13;;;13.80;99.90;;;;;;4805926;29;20394;-77
2020/12/25 07:58:18;;;;;;;11.02;7.40;;;13.80;99.90;;;;;;4820020;29;20113;-78
2020/12/25 08:00:45;;;;;;;21.08;7.72;;;13.90;99.90;;;;;;4820071;29;20294;-78
2020/12/25 08:03:12;;;;;;;12.38;6.45;;;14.00;99.90;;;;;;4819984;29;20074;-78
2020/12/25 08:05:38;;;;;;;14.55;6.75;;;14.00;99.90;;;;;;4812001;29;20034;-78
2020/12/25 08:08:05;;;;;;;14.18;5.35;;;14.10;99.90;;;;;;4817352;29;20103;-77
2020/12/25 08:10:33;;;;;;;12.48;6.03;;;14.20;99.90;;;;;;4813575;29;20041;-77
2020/12/25 08:13:00;;;;;;;10.85;5.82;;;14.30;99.90;;;;;;4819831;29;20567;-77
2020/12/25 08:15:27;;;;;;;9.98;5.72;;;14.40;99.90;;;;;;4808796;29;20031;-77
2020/12/25 08:18:01;;;;;;;11.65;5.07;;;14.50;99.90;;;;;;4821748;29;20390;-79
2020/12/25 08:20:27;;;;;;;9.25;4.40;;;14.40;99.90;;;;;;4825015;29;20045;-77
2020/12/25 08:23:04;;;;;;;12.50;4.88;;;14.50;99.90;;;;;;4810423;29;20095;-81
2020/12/25 08:25:31;;;;;;;9.38;4.68;;;14.50;99.90;;;;;;4811395;29;20050;-78
2020/12/25 08:27:58;;;;;;;17.20;5.38;;;14.60;99.90;;;;;;4817640;29;20054;-77
2020/12/25 08:30:25;;;;;;;9.27;4.28;;;14.60;99.90;;;;;;4819170;29;20052;-77
2020/12/25 08:33:00;;;;;;;11.45;3.78;;;14.70;99.90;;;;;;4820974;29;20034;-77
2020/12/25 08:35:30;;;;;;;8.43;3.50;;;14.70;99.90;;;;;;4815457;29;20381;-78
2020/12/25 08:37:57;;;;;;;4.70;3.30;;;14.80;99.90;;;;;;4807535;29;20050;-78
2020/12/25 08:40:24;;;;;;;6.00;3.03;;;14.80;99.90;;;;;;4802864;29;20045;-78
2020/12/25 08:42:51;;;;;;;8.80;3.80;;;14.80;99.90;;;;;;4802732;29;20035;-78
2020/12/25 08:45:19;;;;;;;6.85;3.53;;;14.90;99.90;;;;;;4812996;29;20558;-77
2020/12/25 08:48:03;;;;;;;5.15;3.03;;;14.90;99.90;;;;;;4796300;29;20043;-78
2020/12/25 08:50:29;;;;;;;5.68;3.25;;;15.00;99.90;;;;;;4811530;29;20046;-77
2020/12/25 08:53:17;;;;;;;5.80;3.53;;;15.00;99.90;;;;;;4805514;29;20035;-78
2020/12/25 08:55:45;;;;;;;5.68;2.72;;;15.10;99.90;;;;;;4803863;29;20038;-75
2020/12/25 08:58:11;;;;;;;6.22;3.28;;;15.20;99.90;;;;;;4812215;29;20035;-77
2020/12/25 09:00:37;;;;;;;4.90;2.50;;;15.20;99.90;;;;;;4819831;29;20068;-78
2020/12/25 09:03:03;;;;;;;5.80;3.17;;;15.40;99.90;;;;;;4821099;29;20083;-78
2020/12/25 09:05:29;;;;;;;6.00;3.40;;;15.50;99.90;;;;;;4819741;29;20042;-78
2020/12/25 09:07:56;;;;;;;5.22;2.75;;;15.60;99.90;;;;;;4817722;29;20060;-77
2020/12/25 09:10:22;;;;;;;4.85;3.03;;;15.70;99.90;;;;;;4805676;29;20050;-77
2020/12/25 09:12:48;;;;;;;4.85;3.70;;;15.70;99.90;;;;;;4807921;29;20071;-77
2020/12/25 09:15:14;;;;;;;6.65;2.70;;;15.80;99.90;;;;;;4810205;29;20035;-77
2020/12/25 09:17:40;;;;;;;5.25;3.20;;;15.90;99.90;;;;;;4811848;29;20022;-77
2020/12/25 09:20:06;;;;;;;6.50;2.60;;;16.00;99.90;;;;;;4807496;29;20035;-78
2020/12/25 09:22:32;;;;;;;9.18;3.63;;;16.00;99.90;;;;;;4809296;29;20034;-78
2020/12/25 09:24:58;;;;;;;4.25;2.95;;;16.10;99.90;;;;;;4810653;29;20071;-81
2020/12/25 09:27:24;;;;;;;6.03;3.35;;;16.10;99.90;;;;;;4796501;29;20522;-80
2020/12/25 09:29:51;;;;;;;4.13;2.95;;;16.20;99.90;;;;;;4798418;29;20094;-77
2020/12/25 09:32:17;;;;;;;12.98;3.40;;;16.20;99.90;;;;;;4821805;29;20031;-79
2020/12/25 09:34:43;;;;;;;4.70;2.90;;;16.20;99.90;;;;;;4793980;29;20337;-78
2020/12/25 09:37:09;;;;;;;4.03;2.83;;;16.30;99.90;;;;;;4816256;29;20038;-79
2020/12/25 09:39:35;;;;;;;4.97;2.70;;;16.30;99.90;;;;;;4805549;29;20033;-79
2020/12/25 09:42:01;;;;;;;9.88;3.80;;;16.40;99.90;;;;;;4807773;29;20023;-78
2020/12/25 09:44:27;;;;;;;8.05;3.40;;;16.50;99.90;;;;;;4818958;29;20034;-78
2020/12/25 09:46:53;;;;;;;4.38;2.30;;;16.60;99.90;;;;;;4820196;29;20396;-80
2020/12/25 09:49:19;;;;;;;4.68;3.15;;;16.50;99.90;;;;;;4827953;29;20038;-78
2020/12/25 09:51:45;;;;;;;5.90;2.20;;;16.40;99.90;;;;;;4824456;29;20604;-78
2020/12/25 09:54:11;;;;;;;6.07;2.75;;;16.60;99.90;;;;;;4819163;29;20060;-77
2020/12/25 09:56:37;;;;;;;4.28;2.15;;;16.60;99.90;;;;;;4789232;29;20071;-77
2020/12/25 09:59:03;;;;;;;3.47;1.88;;;16.70;99.90;;;;;;4813330;29;20034;-77
2020/12/25 10:01:31;;;;;;;3.70;1.98;;;16.70;99.90;;;;;;4781617;29;20042;-77
2020/12/25 10:03:57;;;;;;;5.70;2.33;;;16.80;99.90;;;;;;4811906;29;20031;-76
2020/12/25 10:06:25;;;;;;;3.47;2.17;;;17.00;99.90;;;;;;4814013;29;20615;-76
2020/12/25 10:08:51;;;;;;;2.83;2.10;;;17.10;99.90;;;;;;4810992;29;20504;-76
2020/12/25 10:11:20;;;;;;;4.03;2.10;;;17.20;99.90;;;;;;4812069;29;20030;-75
2020/12/25 10:13:47;;;;;;;4.82;2.38;;;17.20;99.90;;;;;;4815503;29;20047;-76
2020/12/25 10:16:13;;;;;;;3.80;1.77;;;17.30;99.90;;;;;;4812698;29;20038;-77
2020/12/25 10:18:39;;;;;;;4.53;2.13;;;17.40;99.90;;;;;;4813426;29;20105;-77
2020/12/25 10:21:05;;;;;;;4.93;1.90;;;17.50;99.90;;;;;;4809914;29;20051;-77
2020/12/25 10:23:31;;;;;;;2.90;1.83;;;17.50;99.90;;;;;;4809404;29;20042;-77
2020/12/25 10:25:57;;;;;;;2.95;1.92;;;17.50;99.90;;;;;;4797782;29;20131;-77
2020/12/25 10:28:23;;;;;;;4.57;2.03;;;17.60;99.90;;;;;;4810742;29;20060;-77
2020/12/25 10:30:50;;;;;;;3.85;1.90;;;17.50;99.90;;;;;;4810675;29;20105;-77
2020/12/25 10:33:18;;;;;;;4.13;1.77;;;17.50;99.90;;;;;;4808204;29;20026;-79
2020/12/25 10:35:44;;;;;;;3.53;2.17;;;17.40;99.90;;;;;;4816102;29;20110;-77
2020/12/25 10:38:10;;;;;;;3.83;1.80;;;17.20;99.90;;;;;;4808625;29;20123;-77
2020/12/25 10:40:37;;;;;;;4.28;1.70;;;17.40;99.90;;;;;;4815519;29;20034;-75
2020/12/25 10:43:05;;;;;;;3.25;2.47;;;17.50;99.90;;;;;;4805173;29;20051;-76
2020/12/25 10:45:31;;;;;;;3.50;2.25;;;17.50;99.90;;;;;;4821818;29;20076;-77
2020/12/25 10:47:57;;;;;;;3.80;2.22;;;17.50;99.90;;;;;;4815004;29;20057;-76
2020/12/25 10:50:23;;;;;;;2.83;1.75;;;17.60;99.90;;;;;;4818987;29;20034;-76
2020/12/25 10:52:49;;;;;;;5.65;2.25;;;17.60;99.90;;;;;;4819767;29;20050;-77
2020/12/25 10:55:16;;;;;;;4.95;2.30;;;17.60;99.90;;;;;;4820604;29;20037;-77
2020/12/25 10:57:42;;;;;;;3.95;2.08;;;17.60;99.90;;;;;;4820234;29;20050;-77
2020/12/25 11:00:08;;;;;;;2.70;1.80;;;17.70;99.90;;;;;;4822509;29;20038;-77
2020/12/25 11:02:34;;;;;;;4.38;1.92;;;17.80;99.90;;;;;;4836130;29;20038;-77
2020/12/25 11:05:00;;;;;;;6.10;2.70;;;17.80;99.90;;;;;;4824719;29;20030;-77
2020/12/25 11:07:26;;;;;;;2.53;2.05;;;18.00;99.90;;;;;;4809888;29;20047;-77
2020/12/25 11:09:54;;;;;;;4.53;1.88;;;18.10;99.90;;;;;;4819636;29;20042;-77
2020/12/25 11:12:20;;;;;;;6.00;1.88;;;18.10;99.90;;;;;;4822024;29;20220;-77
2020/12/25 11:14:46;;;;;;;2.58;1.85;;;18.10;99.90;;;;;;4820526;29;20452;-77
2020/12/25 11:17:17;;;;;;;2.50;1.80;;;18.10;99.90;;;;;;4831571;29;20030;-77
2020/12/25 11:19:43;;;;;;;6.07;1.60;;;18.20;99.90;;;;;;4834529;29;20034;-77
2020/12/25 11:22:16;;;;;;;4.53;2.67;;;18.30;99.90;;;;;;4804059;29;20035;-77
2020/12/25 11:24:43;;;;;;;4.20;2.90;;;18.50;99.90;;;;;;4803974;29;20039;-77
2020/12/25 11:27:10;;;;;;;3.05;1.85;;;18.60;99.90;;;;;;4818503;29;20558;-78
2020/12/25 11:29:36;;;;;;;4.32;2.20;;;18.60;99.90;;;;;;4821504;29;20512;-77
2020/12/25 11:32:02;;;;;;;4.25;1.98;;;18.70;99.90;;;;;;4807321;29;20033;-78
2020/12/25 11:34:28;;;;;;;3.17;1.90;;;18.80;99.90;;;;;;4803453;29;20451;-77
2020/12/25 11:36:54;;;;;;;2.25;1.60;;;18.80;99.90;;;;;;4822092;29;20030;-77
2020/12/25 11:39:20;;;;;;;2.30;1.60;;;18.90;99.90;;;;;;4821970;29;20061;-77
2020/12/25 11:41:46;;;;;;;5.05;2.05;;;19.10;99.90;;;;;;4812088;29;20084;-77
2020/12/25 11:44:13;;;;;;;4.32;1.70;;;19.10;99.90;;;;;;4816139;29;20558;-77
2020/12/25 11:46:39;;;;;;;3.17;1.70;;;19.10;99.90;;;;;;4820662;29;20087;-77
2020/12/25 11:49:06;;;;;;;1.67;1.40;;;19.40;99.90;;;;;;4822183;29;20042;-77
2020/12/25 11:51:34;;;;;;;2.03;1.58;;;19.60;99.90;;;;;;4817689;29;20117;-77
2020/12/25 11:54:00;;;;;;;2.72;1.63;;;19.80;99.70;;;;;;4819608;29;20034;-77
2020/12/25 11:56:29;;;;;;;4.03;1.95;;;20.00;98.80;;;;;;4820774;29;20030;-77
2020/12/25 11:58:57;;;;;;;4.43;1.70;;;20.10;98.40;;;;;;4817468;29;20030;-79
2020/12/25 12:01:23;;;;;;;3.42;2.25;;;20.20;98.30;;;;;;4821032;29;20067;-79
2020/12/25 12:03:49;;;;;;;2.42;1.63;;;20.30;98.40;;;;;;4807162;29;20034;-78
2020/12/25 12:06:19;;;;;;;2.88;2.10;;;20.20;98.10;;;;;;4803527;29;20030;-78
2020/12/25 12:08:46;;;;;;;2.22;1.77;;;20.10;98.30;;;;;;4822290;29;20022;-79
2020/12/25 12:11:12;;;;;;;3.63;1.80;;;20.00;98.20;;;;;;4839852;29;20038;-77
2020/12/25 12:13:39;;;;;;;2.03;1.50;;;19.90;98.20;;;;;;4816857;29;20493;-77
2020/12/25 12:16:05;;;;;;;4.05;1.77;;;19.60;98.40;;;;;;4810842;29;20521;-78
2020/12/25 12:18:31;;;;;;;2.58;1.60;;;19.60;98.40;;;;;;4810120;29;20034;-79
2020/12/25 12:20:57;;;;;;;2.38;1.60;;;19.70;98.50;;;;;;4813885;29;20096;-77
2020/12/25 12:23:23;;;;;;;2.55;1.70;;;19.70;98.20;;;;;;4808314;29;20117;-78
2020/12/25 12:25:49;;;;;;;2.95;2.03;;;19.50;98.10;;;;;;4809064;29;20131;-83
2020/12/25 12:28:15;;;;;;;4.93;2.55;;;19.50;98.80;;;;;;4796483;29;20565;-81
2020/12/25 12:30:41;;;;;;;4.35;2.70;;;19.30;98.70;;;;;;4798221;29;20033;-83
2020/12/25 12:33:07;;;;;;;13.85;7.40;;;19.20;99.20;;;;;;4794777;29;20033;-77
2020/12/25 12:35:34;;;;;;;6.90;2.45;;;19.20;98.60;;;;;;4812745;29;20523;-80
2020/12/25 12:38:00;;;;;;;3.97;2.15;;;19.20;98.80;;;;;;4813921;29;20109;-80
2020/12/25 12:40:26;;;;;;;8.68;3.40;;;19.10;98.40;;;;;;4814205;29;20046;-80
2020/12/25 12:42:52;;;;;;;12.55;6.10;;;19.30;98.70;;;;;;4813099;29;20027;-78